createdAt,value
2019-06-15T00:01:26.572Z,25
2019-06-15T00:11:26.198Z,25
2019-06-15T00:21:27.316Z,25
2019-06-15T00:31:27.568Z,25
2019-06-15T00:41:27.530Z,25
2019-06-15T00:51:26.246Z,25
2019-06-15T01:01:27.464Z,25
2019-06-15T01:11:26.507Z,25
2019-06-15T01:21:26.965Z,25
2019-06-15T01:31:28.037Z,25
2019-06-15T01:41:26.910Z,25
2019-06-15T01:51:27.132Z,25
2019-06-15T02:01:27.513Z,25
2019-06-15T02:11:31.777Z,24
2019-06-15T02:21:27.103Z,24
2019-06-15T02:31:27.345Z,24
2019-06-15T02:41:26.693Z,24
2019-06-15T02:51:26.771Z,24
2019-06-15T03:01:27.921Z,24
2019-06-15T03:11:26.960Z,24
2019-06-15T03:21:33.277Z,24
2019-06-15T03:31:25.951Z,25
2019-06-15T03:41:26.617Z,24
2019-06-15T03:51:28.219Z,24
2019-06-15T04:01:27.208Z,24
2019-06-15T04:11:26.078Z,24
2019-06-15T04:21:25.938Z,24
2019-06-15T04:31:27.315Z,24
2019-06-15T04:41:26.372Z,24
2019-06-15T04:51:26.063Z,25
2019-06-15T05:01:31.339Z,25
2019-06-15T05:11:28.256Z,25
2019-06-15T05:21:26.289Z,25
2019-06-15T05:31:32.707Z,25
2019-06-15T05:41:26.990Z,25
2019-06-15T05:51:26.691Z,25
2019-06-15T06:01:27.228Z,26
2019-06-15T06:11:27.165Z,26
2019-06-15T06:21:26.424Z,26
2019-06-15T06:31:26.255Z,26
2019-06-15T06:41:27.815Z,26
2019-06-15T06:51:27.423Z,26
2019-06-15T07:01:26.611Z,27
2019-06-15T07:11:27.557Z,27
2019-06-15T07:21:26.394Z,27
2019-06-15T07:31:26.556Z,27
2019-06-15T07:41:26.351Z,28
2019-06-15T07:51:27.506Z,28
2019-06-15T08:01:26.058Z,28
2019-06-15T08:11:27.782Z,28
2019-06-15T08:21:26.913Z,28
2019-06-15T08:31:27.479Z,28
2019-06-15T08:41:26.686Z,28
2019-06-15T08:51:26.395Z,29
2019-06-15T09:01:26.593Z,29
2019-06-15T09:11:26.397Z,29
2019-06-15T09:21:26.222Z,29
2019-06-15T09:31:28.669Z,29
2019-06-15T09:41:27.172Z,29
2019-06-15T09:51:26.991Z,30
2019-06-15T10:01:26.838Z,30
2019-06-15T10:11:27.220Z,30
2019-06-15T10:21:26.497Z,30
2019-06-15T10:31:26.962Z,31
2019-06-15T10:41:27.368Z,31
2019-06-15T10:51:26.439Z,31
2019-06-15T11:01:26.261Z,31
2019-06-15T11:11:26.876Z,31
2019-06-15T11:21:29.210Z,31
2019-06-15T11:31:27.367Z,31
2019-06-15T11:41:26.141Z,31
2019-06-15T11:51:27.763Z,32
2019-06-15T12:01:27.645Z,32
2019-06-15T12:11:26.614Z,32
2019-06-15T12:21:26.963Z,32
2019-06-15T12:31:27.053Z,32
2019-06-15T12:41:26.874Z,32
2019-06-15T12:51:26.893Z,32
2019-06-15T13:01:26.616Z,32
2019-06-15T13:11:26.699Z,32
2019-06-15T13:21:27.247Z,32
2019-06-15T13:31:27.310Z,32
2019-06-15T13:41:27.152Z,32
2019-06-15T13:51:26.917Z,32
2019-06-15T14:01:35.780Z,33
2019-06-15T14:11:26.987Z,33
2019-06-15T14:21:27.365Z,33
2019-06-15T14:31:26.941Z,34
2019-06-15T14:41:26.770Z,34
2019-06-15T14:51:26.975Z,34
2019-06-15T15:01:28.528Z,33
2019-06-15T15:11:27.778Z,34
2019-06-15T15:21:27.818Z,34
2019-06-15T15:31:28.520Z,33
2019-06-15T15:41:27.882Z,33
2019-06-15T15:51:27.894Z,33
2019-06-15T16:01:28.695Z,33
2019-06-15T16:11:28.016Z,33
2019-06-15T16:21:27.795Z,32
2019-06-15T16:31:30.572Z,32
2019-06-15T16:41:27.200Z,32
2019-06-15T16:51:28.220Z,34
2019-06-15T17:01:30.128Z,34
2019-06-15T17:11:28.688Z,35
2019-06-15T17:21:27.372Z,35
2019-06-15T17:31:28.454Z,35
2019-06-15T17:41:28.745Z,35
2019-06-15T17:51:28.196Z,33
2019-06-15T18:01:27.929Z,32
2019-06-15T18:11:28.027Z,32
2019-06-15T18:21:28.353Z,32
2019-06-15T18:31:28.456Z,32
2019-06-15T18:41:28.009Z,31
2019-06-15T18:51:28.451Z,31
2019-06-15T19:01:28.609Z,30
2019-06-15T19:11:28.806Z,31
2019-06-15T19:21:27.373Z,30
2019-06-15T19:31:29.168Z,30
2019-06-15T19:41:27.974Z,29
2019-06-15T19:51:29.832Z,30
2019-06-15T20:01:28.596Z,30
2019-06-15T20:11:28.406Z,29
2019-06-15T20:21:31.906Z,29
2019-06-15T20:31:28.036Z,29
2019-06-15T20:41:28.209Z,29
2019-06-15T20:51:27.502Z,29
2019-06-15T21:01:27.330Z,29
2019-06-15T21:11:27.799Z,29
2019-06-15T21:21:29.088Z,28
2019-06-15T21:31:29.096Z,28
2019-06-15T21:41:27.889Z,28
2019-06-15T21:51:28.393Z,28
2019-06-15T22:01:27.496Z,28
2019-06-15T22:11:28.034Z,28
2019-06-15T22:21:29.505Z,28
2019-06-15T22:31:26.517Z,28
2019-06-15T22:41:26.861Z,28
2019-06-15T22:51:28.993Z,28
2019-06-15T23:01:28.168Z,28
2019-06-15T23:11:28.015Z,26
2019-06-15T23:21:28.126Z,26
2019-06-15T23:31:26.297Z,27
2019-06-15T23:41:28.610Z,26
2019-06-15T23:51:27.784Z,26
